createdAt,value
2018-05-09T00:00:52.852Z,17.75
2018-05-09T00:06:57.629Z,17.85
2018-05-09T00:13:01.989Z,17.88
2018-05-09T00:19:06.342Z,17.66
2018-05-09T00:25:11.152Z,17.18
2018-05-09T00:31:15.496Z,17.19
2018-05-09T00:37:20.903Z,17.13
2018-05-09T00:43:25.301Z,16.99
2018-05-09T00:49:29.656Z,16.99
2018-05-09T00:55:33.993Z,16.68
2018-05-09T01:01:38.415Z,16.25
2018-05-09T01:07:42.816Z,15.76
2018-05-09T01:13:47.343Z,15.75
2018-05-09T01:19:52.759Z,15.52
2018-05-09T01:25:57.205Z,15.33
2018-05-09T01:32:01.565Z,15.25
2018-05-09T01:38:05.941Z,15.11
2018-05-09T01:44:11.239Z,15.19
2018-05-09T01:50:15.706Z,15.32
2018-05-09T01:56:21.788Z,15.66
2018-05-09T02:02:26.397Z,15.63
2018-05-09T02:08:30.757Z,15.88
2018-05-09T02:14:35.093Z,16.02
2018-05-09T02:20:39.514Z,16.12
2018-05-09T02:26:43.865Z,16.23
2018-05-09T02:32:48.390Z,16.34
2018-05-09T02:38:52.718Z,16.26
2018-05-09T02:44:57.076Z,16.19
2018-05-09T02:51:01.429Z,16.10
2018-05-09T02:57:06.559Z,15.96
2018-05-09T03:03:10.915Z,15.93
2018-05-09T03:09:15.291Z,15.79
2018-05-09T03:15:19.639Z,15.56
2018-05-09T03:21:24.205Z,15.46
2018-05-09T03:27:28.674Z,15.42
2018-05-09T03:33:33.039Z,15.31
2018-05-09T03:39:37.383Z,15.08
2018-05-09T03:45:41.720Z,14.87
2018-05-09T03:51:46.861Z,15.02
2018-05-09T03:57:51.810Z,14.79
2018-05-09T04:04:14.041Z,14.74
2018-05-09T04:10:18.396Z,14.85
2018-05-09T04:16:28.909Z,14.90
2018-05-09T04:22:33.254Z,14.65
2018-05-09T04:28:37.610Z,14.41
2018-05-09T04:34:41.963Z,14.59
2018-05-09T04:40:46.325Z,14.72
2018-05-09T04:46:51.541Z,14.53
2018-05-09T04:52:55.958Z,14.46
2018-05-09T04:59:00.392Z,14.47
2018-05-09T05:05:04.743Z,14.59
2018-05-09T05:11:09.189Z,14.64
2018-05-09T05:17:14.341Z,14.70
2018-05-09T05:23:18.792Z,14.85
2018-05-09T05:29:23.801Z,15.26
2018-05-09T05:35:28.170Z,15.50
2018-05-09T05:41:32.644Z,15.95
2018-05-09T05:47:37.031Z,16.07
2018-05-09T05:53:41.453Z,16.53
2018-05-09T05:59:46.565Z,16.80
2018-05-09T06:05:52.120Z,17.15
2018-05-09T06:11:56.544Z,17.43
2018-05-09T06:18:00.899Z,17.69
2018-05-09T06:24:06.142Z,18.25
2018-05-09T06:30:10.497Z,18.61
2018-05-09T06:36:14.849Z,18.92
2018-05-09T06:42:20.329Z,19.21
2018-05-09T06:48:25.198Z,19.86
2018-05-09T06:54:29.561Z,20.24
2018-05-09T07:00:33.919Z,20.35
2018-05-09T07:06:38.486Z,21.00
2018-05-09T07:12:42.794Z,21.53
2018-05-09T07:18:47.842Z,21.56
2018-05-09T07:24:52.223Z,21.85
2018-05-09T07:30:56.576Z,22.57
2018-05-09T07:37:01.772Z,22.88
2018-05-09T07:43:06.879Z,23.35
2018-05-09T07:49:11.223Z,23.82
2018-05-09T07:55:16.382Z,24.33
2018-05-09T08:01:20.861Z,24.62
2018-05-09T08:07:25.321Z,24.53
2018-05-09T08:13:29.663Z,24.93
2018-05-09T08:19:34.025Z,25.17
2018-05-09T08:25:38.393Z,25.81
2018-05-09T08:31:42.752Z,25.75
2018-05-09T08:37:47.088Z,25.42
2018-05-09T08:43:51.978Z,25.52
2018-05-09T08:49:56.333Z,25.46
2018-05-09T08:56:00.665Z,25.71
2018-05-09T09:02:05.013Z,26.02
2018-05-09T09:08:09.363Z,26.49
2018-05-09T09:14:13.763Z,27.13
2018-05-09T09:20:18.113Z,27.06
2018-05-09T09:26:24.291Z,27.41
2018-05-09T09:32:29.469Z,28.40
2018-05-09T09:38:33.833Z,29.09
2018-05-09T09:44:38.181Z,29.41
2018-05-09T09:50:42.606Z,29.72
2018-05-09T09:56:46.895Z,29.87
2018-05-09T10:02:51.406Z,29.92
2018-05-09T10:08:56.000Z,29.85
2018-05-09T10:15:00.347Z,30.07
2018-05-09T10:21:04.685Z,29.19
2018-05-09T10:27:09.030Z,30.62
2018-05-09T10:33:13.390Z,31.56
2018-05-09T10:39:17.850Z,32.43
2018-05-09T10:45:22.273Z,32.32
2018-05-09T10:51:26.620Z,31.49
2018-05-09T10:57:30.962Z,32.66
2018-05-09T11:03:36.071Z,34.41
2018-05-09T11:09:40.422Z,34.36
2018-05-09T11:15:44.854Z,34.34
2018-05-09T11:21:49.190Z,34.70
2018-05-09T11:27:53.587Z,35.60
2018-05-09T11:33:57.922Z,33.91
2018-05-09T11:40:02.270Z,32.53
2018-05-09T11:46:06.634Z,33.15
2018-05-09T11:52:11.105Z,34.62
2018-05-09T11:58:15.555Z,32.76
2018-05-09T12:04:20.076Z,31.04
2018-05-09T12:10:25.468Z,31.21
2018-05-09T12:16:30.888Z,30.02
2018-05-09T12:22:35.379Z,33.23
2018-05-09T12:28:39.856Z,35.61
2018-05-09T12:34:45.001Z,36.78
2018-05-09T12:40:49.507Z,38.56
2018-05-09T12:46:54.166Z,39.40
2018-05-09T12:52:58.519Z,40.06
2018-05-09T12:59:02.960Z,40.03
2018-05-09T13:05:07.346Z,40.30
2018-05-09T13:11:11.805Z,40.15
2018-05-09T13:17:16.927Z,40.80
2018-05-09T13:23:22.623Z,38.76
2018-05-09T13:29:27.041Z,39.86
2018-05-09T13:35:31.392Z,40.36
2018-05-09T13:41:35.762Z,40.43
2018-05-09T13:47:40.206Z,40.99
2018-05-09T13:53:45.483Z,41.19
2018-05-09T13:59:49.952Z,41.90
2018-05-09T14:05:54.316Z,41.69
2018-05-09T14:11:58.674Z,42.00
2018-05-09T14:18:03.042Z,41.53
2018-05-09T14:24:07.435Z,40.50
2018-05-09T14:30:11.792Z,42.63
2018-05-09T14:36:16.166Z,43.36
2018-05-09T14:42:20.571Z,42.39
2018-05-09T14:48:25.151Z,41.96
2018-05-09T14:54:29.566Z,42.02
2018-05-09T15:00:34.665Z,42.76
2018-05-09T15:06:39.099Z,42.28
2018-05-09T15:12:44.247Z,42.13
2018-05-09T15:18:48.622Z,42.88
2018-05-09T15:24:53.394Z,41.72
2018-05-09T15:30:57.741Z,42.40
2018-05-09T15:37:03.000Z,42.66
2018-05-09T15:43:07.435Z,43.03
2018-05-09T15:49:11.785Z,43.31
2018-05-09T15:55:16.150Z,42.75
2018-05-09T16:01:21.019Z,43.48
2018-05-09T16:07:25.493Z,42.90
2018-05-09T16:13:29.879Z,41.09
2018-05-09T16:19:34.242Z,39.49
2018-05-09T16:25:38.623Z,38.69
2018-05-09T16:31:43.005Z,38.66
2018-05-09T16:37:48.167Z,39.25
2018-05-09T16:56:52.541Z,37.28
2018-05-09T17:02:57.697Z,39.06
2018-05-09T17:09:02.085Z,40.01
2018-05-09T17:15:06.483Z,39.01
2018-05-09T17:21:35.388Z,38.69
2018-05-09T17:27:39.783Z,37.31
2018-05-09T17:33:44.235Z,36.57
2018-05-09T17:39:48.639Z,36.31
2018-05-09T17:45:53.809Z,32.77
2018-05-09T17:51:58.196Z,30.30
2018-05-09T17:58:02.561Z,28.96
2018-05-09T18:04:07.134Z,27.84
2018-05-09T18:10:11.378Z,28.26
2018-05-09T18:16:15.797Z,28.88
2018-05-09T18:22:20.256Z,28.27
2018-05-09T18:28:24.921Z,26.87
2018-05-09T18:34:29.293Z,25.77
2018-05-09T18:40:34.492Z,24.74
2018-05-09T18:46:38.912Z,23.97
2018-05-09T18:52:43.358Z,23.30
2018-05-09T18:58:47.720Z,22.69
2018-05-09T19:04:52.425Z,22.19
2018-05-09T19:10:56.816Z,21.94
2018-05-09T19:17:01.208Z,21.54
2018-05-09T19:23:05.605Z,21.24
2018-05-09T19:29:10.721Z,20.94
2018-05-09T19:35:15.106Z,20.80
2018-05-09T19:41:19.468Z,20.48
2018-05-09T19:47:23.897Z,20.36
2018-05-09T19:53:28.264Z,20.39
2018-05-09T19:59:32.621Z,20.47
2018-05-09T20:05:36.988Z,20.35
2018-05-09T20:11:41.454Z,20.23
2018-05-09T20:17:45.789Z,20.05
2018-05-09T20:23:50.247Z,20.00
2018-05-09T20:29:54.774Z,19.76
2018-05-09T20:35:59.881Z,19.61
2018-05-09T20:42:04.349Z,19.41
2018-05-09T20:48:08.681Z,19.36
2018-05-09T20:54:13.033Z,19.20
2018-05-09T21:00:17.393Z,19.10
2018-05-09T21:06:21.731Z,18.84
2018-05-09T21:12:26.081Z,19.03
2018-05-09T21:18:31.228Z,18.88
2018-05-09T21:24:35.602Z,18.90
2018-05-09T21:30:39.948Z,18.89
2018-05-09T21:36:45.286Z,18.56
2018-05-09T21:42:49.660Z,18.51
2018-05-09T21:48:54.096Z,18.35
2018-05-09T21:54:59.200Z,18.37
2018-05-09T22:01:03.539Z,18.03
2018-05-09T22:07:07.904Z,17.99
2018-05-09T22:13:12.282Z,17.83
2018-05-09T22:19:17.407Z,17.88
2018-05-09T22:25:22.612Z,17.75
2018-05-09T22:31:26.980Z,17.40
2018-05-09T22:37:32.105Z,17.20
2018-05-09T22:43:36.452Z,17.10
2018-05-09T22:49:40.817Z,16.97
2018-05-09T22:55:45.509Z,16.92
2018-05-09T23:01:50.117Z,17.00
2018-05-09T23:07:54.589Z,17.11
2018-05-09T23:13:59.722Z,17.41
2018-05-09T23:20:04.081Z,17.73
2018-05-09T23:26:08.522Z,17.27
2018-05-09T23:32:12.877Z,17.07
2018-05-09T23:38:17.222Z,16.79
2018-05-09T23:44:22.153Z,16.77
2018-05-09T23:50:26.503Z,16.87
2018-05-09T23:56:31.643Z,16.63
